createdAt,value
2023-04-15T00:01:08.107Z,98627.53
2023-04-15T00:03:37.551Z,98608.13
2023-04-15T00:06:05.634Z,98585.31
2023-04-15T00:08:33.634Z,98563.34
2023-04-15T00:11:05.665Z,98532.94
2023-04-15T00:13:33.947Z,98505.84
2023-04-15T00:16:02.145Z,98487.31
2023-04-15T00:18:31.564Z,98473.06
2023-04-15T00:21:00.813Z,98446.88
2023-04-15T00:23:29.420Z,98430.06
2023-04-15T00:25:57.355Z,98410.63
2023-04-15T00:28:25.129Z,98393.75
2023-04-15T00:30:52.931Z,98378.53
2023-04-15T00:33:20.787Z,98365.88
2023-04-15T00:35:48.562Z,98360.88
2023-04-15T00:38:17.753Z,98355.84
2023-04-15T00:40:45.815Z,98345.69
2023-04-15T00:43:13.615Z,98342.34
2023-04-15T00:45:41.473Z,98332.19
2023-04-15T00:48:12.472Z,98328.88
2023-04-15T00:50:40.251Z,98324.66
2023-04-15T00:53:07.988Z,98325.50
2023-04-15T00:55:37.272Z,98328.03
2023-04-15T00:58:05.041Z,98330.59
2023-04-15T01:00:32.961Z,98324.66
2023-04-15T01:03:00.957Z,98322.09
2023-04-15T01:05:29.465Z,98330.53
2023-04-15T01:07:57.943Z,98333.91
2023-04-15T01:10:25.821Z,98336.41
2023-04-15T01:12:55.013Z,98341.50
2023-04-15T01:15:22.786Z,98345.72
2023-04-15T01:17:51.550Z,98350.81
2023-04-15T01:20:20.265Z,98366.00
2023-04-15T01:22:48.148Z,98382.03
2023-04-15T01:25:19.757Z,98386.22
2023-04-15T01:27:49.240Z,98403.16
2023-04-15T01:30:17.401Z,98409.84
2023-04-15T01:32:45.174Z,98408.19
2023-04-15T01:35:13.168Z,98409.84
2023-04-15T01:37:41.026Z,98410.75
2023-04-15T01:40:09.813Z,98411.53
2023-04-15T01:42:38.504Z,98418.31
2023-04-15T01:45:09.072Z,98426.81
2023-04-15T01:47:38.775Z,98436.91
2023-04-15T01:50:08.459Z,98447.06
2023-04-15T01:52:36.288Z,98459.75
2023-04-15T01:55:04.305Z,98463.06
2023-04-15T01:57:32.540Z,98480.88
2023-04-15T02:00:00.272Z,98490.06
2023-04-15T02:02:29.738Z,98496.00
2023-04-15T02:04:58.014Z,98504.44
2023-04-15T02:07:25.879Z,98520.59
2023-04-15T02:09:54.095Z,98517.97
2023-04-15T02:12:22.051Z,98524.66
2023-04-15T02:14:50.549Z,98525.50
2023-04-15T02:17:18.314Z,98537.38
2023-04-15T02:19:48.160Z,98542.50
2023-04-15T02:22:18.620Z,98542.47
2023-04-15T02:24:47.697Z,98548.34
2023-04-15T02:27:18.153Z,98554.31
2023-04-15T02:29:46.582Z,98561.06
2023-04-15T02:32:14.634Z,98574.59
2023-04-15T02:34:42.888Z,98587.28
2023-04-15T02:37:13.632Z,98599.13
2023-04-15T02:39:41.525Z,98611.81
2023-04-15T02:42:09.344Z,98626.13
2023-04-15T02:44:37.736Z,98634.59
2023-04-15T02:47:07.420Z,98640.50
2023-04-15T02:49:35.218Z,98647.19
2023-04-15T02:52:03.017Z,98660.84
2023-04-15T02:54:33.917Z,98659.06
2023-04-15T02:57:02.183Z,98663.34
2023-04-15T02:59:30.171Z,98670.97
2023-04-15T03:02:00.854Z,98673.47
2023-04-15T03:04:30.156Z,98683.63
2023-04-15T03:06:57.964Z,98687.88
2023-04-15T03:09:26.857Z,98698.06
2023-04-15T03:11:57.424Z,98698.84
2023-04-15T03:14:25.950Z,98708.19
2023-04-15T03:16:53.958Z,98710.66
2023-04-15T03:19:21.706Z,98725.13
2023-04-15T03:21:49.470Z,98725.09
2023-04-15T03:24:17.697Z,98727.66
2023-04-15T03:26:46.404Z,98733.63
2023-04-15T03:29:18.716Z,98735.34
2023-04-15T03:31:47.341Z,98738.72
2023-04-15T03:34:15.119Z,98736.19
2023-04-15T03:36:42.895Z,98737.84
2023-04-15T03:39:10.681Z,98737.84
2023-04-15T03:41:38.420Z,98739.56
2023-04-15T03:44:06.694Z,98738.66
2023-04-15T03:46:35.890Z,98742.06
2023-04-15T03:49:04.018Z,98741.22
2023-04-15T03:51:32.455Z,98748.00
2023-04-15T03:54:00.263Z,98749.69
2023-04-15T03:56:27.979Z,98753.06
2023-04-15T03:58:55.720Z,98751.41
2023-04-15T04:01:23.942Z,98749.69
2023-04-15T04:03:53.209Z,98751.34
2023-04-15T04:06:21.255Z,98751.34
2023-04-15T04:08:49.029Z,98754.78
2023-04-15T04:11:17.220Z,98751.41
2023-04-15T04:13:44.958Z,98745.53
2023-04-15T04:16:12.821Z,98747.19
2023-04-15T04:18:40.609Z,98749.75
2023-04-15T04:21:09.800Z,98754.78
2023-04-15T04:23:37.693Z,98750.56
2023-04-15T04:26:05.506Z,98745.53
2023-04-15T04:28:33.347Z,98748.91
2023-04-15T04:31:01.227Z,98744.69
2023-04-15T04:33:29.100Z,98739.59
2023-04-15T04:35:56.819Z,98742.16
2023-04-15T04:38:25.952Z,98743.84
2023-04-15T04:40:53.798Z,98750.63
2023-04-15T04:43:21.854Z,98744.69
2023-04-15T04:45:49.624Z,98752.31
2023-04-15T04:48:17.618Z,98750.63
2023-04-15T04:50:46.974Z,98748.16
2023-04-15T04:53:14.770Z,98742.16
2023-04-15T04:55:43.833Z,98736.28
2023-04-15T04:58:11.641Z,98722.72
2023-04-15T05:00:39.397Z,98724.50
2023-04-15T05:03:07.380Z,98716.81
2023-04-15T05:05:35.448Z,98721.13
2023-04-15T05:08:03.267Z,98705.84
2023-04-15T05:10:31.065Z,98701.63
2023-04-15T05:13:00.318Z,98694.06
2023-04-15T05:15:28.141Z,98687.25
2023-04-15T05:17:55.952Z,98695.75
2023-04-15T05:20:23.776Z,98707.56
2023-04-15T05:22:51.558Z,98713.53
2023-04-15T05:25:19.463Z,98717.75
2023-04-15T05:27:47.278Z,98716.84
2023-04-15T05:30:16.720Z,98722.88
2023-04-15T05:32:44.510Z,98710.13
2023-04-15T05:35:12.406Z,98716.09
2023-04-15T05:37:40.161Z,98718.66
2023-04-15T05:40:10.466Z,98708.47
2023-04-15T05:42:38.349Z,98706.81
2023-04-15T05:45:09.086Z,98701.75
2023-04-15T05:47:38.369Z,98703.44
2023-04-15T05:50:07.314Z,98705.16
2023-04-15T05:52:35.135Z,98705.97
2023-04-15T05:55:02.871Z,98712.75
2023-04-15T05:57:30.627Z,98710.22
2023-04-15T05:59:58.423Z,98713.59
2023-04-15T06:02:26.593Z,98715.25
2023-04-15T06:04:55.876Z,98717.81
2023-04-15T06:07:23.684Z,98720.38
2023-04-15T06:09:51.437Z,98712.75
2023-04-15T06:12:19.172Z,98711.94
2023-04-15T06:14:46.897Z,98714.44
2023-04-15T06:17:14.988Z,98726.34
2023-04-15T06:19:42.785Z,98728.00
2023-04-15T06:22:11.839Z,98736.47
2023-04-15T06:24:39.676Z,98746.66
2023-04-15T06:27:07.490Z,98746.66
2023-04-15T06:29:35.571Z,98746.66
2023-04-15T06:32:03.350Z,98748.38
2023-04-15T06:34:31.156Z,98748.38
2023-04-15T06:36:58.928Z,98753.44
2023-04-15T06:39:28.042Z,98756.75
2023-04-15T06:41:56.409Z,98760.16
2023-04-15T06:44:24.143Z,98764.44
2023-04-15T06:46:51.872Z,98778.88
2023-04-15T06:49:19.577Z,98776.31
2023-04-15T06:51:47.348Z,98777.97
2023-04-15T06:54:15.070Z,98785.59
2023-04-15T06:56:44.250Z,98774.59
2023-04-15T06:59:12.845Z,98772.06
2023-04-15T07:01:41.676Z,98767.84
2023-04-15T07:04:09.678Z,98769.56
2023-04-15T07:06:37.536Z,98768.72
2023-04-15T07:09:05.936Z,98778.91
2023-04-15T07:11:33.909Z,98777.97
2023-04-15T07:14:03.235Z,98784.75
2023-04-15T07:16:31.395Z,98801.72
2023-04-15T07:18:59.181Z,98802.56
2023-04-15T07:21:27.653Z,98806.78
2023-04-15T07:23:55.481Z,98818.66
2023-04-15T07:26:23.359Z,98809.31
2023-04-15T07:28:51.481Z,98817.00
2023-04-15T07:31:20.825Z,98814.47
2023-04-15T07:33:48.629Z,98811.06
2023-04-15T07:36:16.480Z,98809.34
2023-04-15T07:38:44.215Z,98826.34
2023-04-15T07:41:12.489Z,98830.50
2023-04-15T07:43:40.211Z,98831.34
2023-04-15T07:46:08.324Z,98836.47
2023-04-15T07:48:37.604Z,98840.69
2023-04-15T07:51:06.020Z,98841.50
2023-04-15T07:53:34.003Z,98844.03
2023-04-15T07:56:01.799Z,98848.31
2023-04-15T07:58:29.623Z,98859.41
2023-04-15T08:00:57.667Z,98852.56
2023-04-15T08:03:26.858Z,98854.22
2023-04-15T08:05:56.074Z,98860.19
2023-04-15T08:08:23.906Z,98872.91
2023-04-15T08:10:52.825Z,98882.28
2023-04-15T08:13:21.037Z,98884.75
2023-04-15T08:16:14.466Z,98896.66
2023-04-15T08:18:42.314Z,98906.81
2023-04-15T08:21:11.491Z,98907.59
2023-04-15T08:23:39.619Z,98905.88
2023-04-15T08:26:08.638Z,98916.94
2023-04-15T08:28:36.500Z,98923.75
2023-04-15T08:31:04.393Z,98935.63
2023-04-15T08:33:32.244Z,98931.31
2023-04-15T08:36:00.008Z,98940.69
2023-04-15T08:38:29.192Z,98962.69
2023-04-15T08:40:59.372Z,98967.75
2023-04-15T08:43:30.649Z,98974.53
2023-04-15T08:46:00.201Z,98969.47
2023-04-15T08:48:30.286Z,98972.03
2023-04-15T08:50:59.049Z,98966.06
2023-04-15T08:53:30.304Z,98971.22
2023-04-15T08:56:01.395Z,98963.53
2023-04-15T08:58:29.979Z,98961.06
2023-04-15T09:00:58.425Z,98959.38
2023-04-15T09:03:26.804Z,98957.72
2023-04-15T09:05:55.317Z,98956.00
2023-04-15T09:08:23.103Z,98956.81
2023-04-15T09:10:52.576Z,98956.88
2023-04-15T09:13:20.360Z,98962.78
2023-04-15T09:15:48.449Z,98965.25
2023-04-15T09:18:28.556Z,98955.09
2023-04-15T09:20:56.603Z,98964.50
2023-04-15T09:23:24.426Z,98954.31
2023-04-15T09:25:53.698Z,98950.16
2023-04-15T09:28:27.037Z,98944.97
2023-04-15T09:30:57.734Z,98958.63
2023-04-15T09:33:27.048Z,98956.88
2023-04-15T09:36:00.068Z,98956.88
2023-04-15T09:38:28.413Z,98965.34
2023-04-15T09:40:58.015Z,98972.19
2023-04-15T09:43:39.050Z,98980.63
2023-04-15T09:46:07.039Z,98980.63
2023-04-15T09:48:34.866Z,98986.50
2023-04-15T09:51:02.990Z,98988.25
2023-04-15T09:53:31.909Z,98999.25
2023-04-15T09:56:02.337Z,98989.97
2023-04-15T09:58:31.800Z,98987.47
2023-04-15T10:01:01.725Z,98991.66
2023-04-15T10:03:31.894Z,99003.56
2023-04-15T10:06:02.028Z,99006.13
2023-04-15T10:08:31.556Z,99002.72
2023-04-15T10:11:01.305Z,99006.13
2023-04-15T10:13:33.263Z,99002.72
2023-04-15T10:16:06.415Z,98999.31
2023-04-15T10:18:38.972Z,99000.22
2023-04-15T10:21:07.835Z,98999.38
2023-04-15T10:23:35.612Z,99012.97
2023-04-15T10:26:06.116Z,99012.06
2023-04-15T10:28:33.897Z,99018.88
2023-04-15T10:31:02.564Z,99015.44
2023-04-15T10:33:31.125Z,99016.31
2023-04-15T10:35:59.405Z,99018.00
2023-04-15T10:38:35.262Z,99028.19
2023-04-15T10:41:17.833Z,99037.56
2023-04-15T10:43:49.563Z,99034.94
2023-04-15T10:46:20.843Z,99042.63
2023-04-15T10:48:50.393Z,99038.38
2023-04-15T10:51:27.321Z,99050.25
2023-04-15T10:53:57.970Z,99040.94
2023-04-15T10:56:29.118Z,99044.28
2023-04-15T10:58:56.908Z,99051.91
2023-04-15T11:01:51.457Z,99069.75
2023-04-15T11:04:52.803Z,99081.63
2023-04-15T11:07:37.836Z,99079.94
2023-04-15T11:10:26.260Z,99085.81
2023-04-15T11:12:58.755Z,99093.44
2023-04-15T11:15:30.255Z,99111.28
2023-04-15T11:17:59.139Z,99126.56
2023-04-15T11:20:27.488Z,99142.59
2023-04-15T11:23:08.099Z,99156.16
2023-04-15T11:25:44.309Z,99167.19
2023-04-15T11:28:14.430Z,99158.72
2023-04-15T11:30:43.558Z,99160.38
2023-04-15T11:33:13.979Z,99182.50
2023-04-15T11:35:42.649Z,99185.00
2023-04-15T11:38:12.181Z,99187.56
2023-04-15T11:40:40.935Z,99200.31
2023-04-15T11:43:09.799Z,99206.22
2023-04-15T11:45:49.685Z,99202.75
2023-04-15T11:48:17.624Z,99215.56
2023-04-15T11:50:45.589Z,99217.22
2023-04-15T11:53:14.845Z,99222.22
2023-04-15T11:55:45.089Z,99234.22
2023-04-15T11:58:16.350Z,99233.31
2023-04-15T12:00:49.882Z,99240.97
2023-04-15T12:03:26.603Z,99247.75
2023-04-15T12:06:09.110Z,99261.38
2023-04-15T12:09:02.794Z,99261.31
2023-04-15T12:11:38.728Z,99268.13
2023-04-15T12:14:09.414Z,99265.63
2023-04-15T12:16:46.680Z,99274.94
2023-04-15T12:19:23.292Z,99276.59
2023-04-15T12:21:51.444Z,99278.31
2023-04-15T12:24:22.695Z,99273.19
2023-04-15T12:26:52.826Z,99280.91
2023-04-15T12:29:21.455Z,99280.91
2023-04-15T12:31:52.982Z,99286.84
2023-04-15T12:34:27.863Z,99291.97
2023-04-15T12:36:56.478Z,99288.50
2023-04-15T12:39:25.327Z,99299.47
2023-04-15T12:41:53.120Z,99309.75
2023-04-15T12:44:22.085Z,99307.19
2023-04-15T12:46:52.563Z,99312.31
2023-04-15T12:49:20.953Z,99318.28
2023-04-15T12:51:49.958Z,99314.81
2023-04-15T12:54:17.947Z,99320.78
2023-04-15T12:56:46.064Z,99320.78
2023-04-15T12:59:14.050Z,99320.78
2023-04-15T13:01:42.055Z,99319.94
2023-04-15T13:04:12.315Z,99317.38
2023-04-15T13:06:40.266Z,99316.53
2023-04-15T13:09:08.167Z,99320.78
2023-04-15T13:11:36.500Z,99325.00
2023-04-15T13:14:06.826Z,99336.03
2023-04-15T13:16:35.568Z,99342.84
2023-04-15T13:19:05.420Z,99347.91
2023-04-15T13:21:35.944Z,99358.97
2023-04-15T13:24:04.929Z,99357.34
2023-04-15T13:26:33.106Z,99356.47
2023-04-15T13:29:00.902Z,99359.81
2023-04-15T13:31:28.825Z,99371.75
2023-04-15T13:33:57.911Z,99388.69
2023-04-15T13:36:26.363Z,99385.34
2023-04-15T13:38:55.726Z,99383.63
2023-04-15T13:41:23.496Z,99382.72
2023-04-15T13:43:51.219Z,99387.00
2023-04-15T13:46:19.158Z,99389.56
2023-04-15T13:48:46.996Z,99395.53
2023-04-15T13:51:14.759Z,99403.19
2023-04-15T13:53:42.526Z,99408.31
2023-04-15T13:56:11.785Z,99403.13
2023-04-15T13:58:39.760Z,99415.00
2023-04-15T14:01:07.786Z,99425.25
2023-04-15T14:03:36.603Z,99423.50
2023-04-15T14:06:05.536Z,99423.53
2023-04-15T14:08:33.311Z,99425.22
2023-04-15T14:11:01.109Z,99431.22
2023-04-15T14:13:30.394Z,99428.63
2023-04-15T14:15:58.301Z,99444.81
2023-04-15T14:18:26.312Z,99451.56
2023-04-15T14:20:54.497Z,99437.97
2023-04-15T14:23:22.380Z,99455.81
2023-04-15T14:25:51.930Z,99453.25
2023-04-15T14:28:19.669Z,99461.75
2023-04-15T14:30:48.846Z,99477.94
2023-04-15T14:33:16.923Z,99471.97
2023-04-15T14:35:44.746Z,99478.72
2023-04-15T14:38:12.523Z,99495.75
2023-04-15T14:40:40.279Z,99496.53
2023-04-15T14:43:08.104Z,99521.25
2023-04-15T14:45:36.317Z,99526.31
2023-04-15T14:48:06.483Z,99541.59
2023-04-15T14:50:34.480Z,99542.38
2023-04-15T14:53:02.520Z,99553.47
2023-04-15T14:55:30.284Z,99562.84
2023-04-15T14:57:58.010Z,99569.66
2023-04-15T15:00:25.717Z,99576.41
2023-04-15T15:02:54.412Z,99586.59
2023-04-15T15:05:23.792Z,99601.06
2023-04-15T15:07:51.620Z,99602.75
2023-04-15T15:10:35.377Z,99611.22
2023-04-15T15:13:09.877Z,99617.19
2023-04-15T15:15:39.206Z,99636.78
2023-04-15T15:18:07.289Z,99644.44
2023-04-15T15:20:36.459Z,99642.69
2023-04-15T15:23:04.300Z,99652.88
2023-04-15T15:25:32.177Z,99650.31
2023-04-15T15:28:00.033Z,99663.09
2023-04-15T15:30:27.831Z,99674.13
2023-04-15T15:32:55.648Z,99676.69
2023-04-15T15:35:23.683Z,99690.28
2023-04-15T15:37:53.618Z,99698.00
2023-04-15T15:40:21.517Z,99705.59
2023-04-15T15:42:50.760Z,99712.41
2023-04-15T15:45:18.698Z,99711.53
2023-04-15T15:47:46.589Z,99725.19
2023-04-15T15:50:15.427Z,99730.25
2023-04-15T15:52:43.224Z,99733.66
2023-04-15T15:55:12.478Z,99734.50
2023-04-15T15:57:40.247Z,99739.59
2023-04-15T16:00:11.741Z,99753.25
2023-04-15T16:03:05.193Z,99756.59
2023-04-15T16:05:28.621Z,99759.19
2023-04-15T16:07:56.416Z,99770.28
2023-04-15T16:10:25.659Z,99771.94
2023-04-15T16:12:53.630Z,99777.06
2023-04-15T16:15:21.469Z,99788.13
2023-04-15T16:17:49.266Z,99794.94
2023-04-15T16:20:17.330Z,99796.63
2023-04-15T16:22:45.232Z,99805.19
2023-04-15T16:25:13.130Z,99808.56
2023-04-15T16:27:57.126Z,99803.44
2023-04-15T16:30:27.054Z,99802.59
2023-04-15T16:32:54.891Z,99802.59
2023-04-15T16:35:22.663Z,99800.03
2023-04-15T16:37:50.538Z,99801.72
2023-04-15T16:40:18.487Z,99800.03
2023-04-15T16:42:47.730Z,99812.81
2023-04-15T16:45:15.819Z,99805.13
2023-04-15T16:47:44.023Z,99803.44
2023-04-15T16:50:12.366Z,99807.69
2023-04-15T16:52:40.198Z,99811.13
2023-04-15T16:55:08.270Z,99806.84
2023-04-15T16:58:00.645Z,99810.31
2023-04-15T17:00:25.223Z,99798.34
2023-04-15T17:02:53.161Z,99798.34
2023-04-15T17:05:21.060Z,99807.75
2023-04-15T17:07:48.886Z,99803.50
2023-04-15T17:10:16.946Z,99808.59
2023-04-15T17:12:44.716Z,99805.19
2023-04-15T17:15:12.553Z,99811.16
2023-04-15T17:17:41.943Z,99811.16
2023-04-15T17:20:10.604Z,99806.84
2023-04-15T17:22:38.439Z,99807.75
2023-04-15T17:25:07.361Z,99810.31
2023-04-15T17:27:35.208Z,99812.84
2023-04-15T17:30:03.045Z,99812.00
2023-04-15T17:32:34.241Z,99808.59
2023-04-15T17:35:06.299Z,99811.16
2023-04-15T17:37:34.288Z,99809.44
2023-04-15T17:40:02.351Z,99809.44
2023-04-15T17:42:30.172Z,99812.00
2023-04-15T17:44:57.944Z,99809.44
2023-04-15T17:47:25.796Z,99828.25
2023-04-15T17:49:53.561Z,99820.53
2023-04-15T17:52:22.707Z,99829.03
2023-04-15T17:54:50.682Z,99823.94
2023-04-15T17:57:18.450Z,99834.22
2023-04-15T17:59:47.721Z,99819.69
2023-04-15T18:02:16.206Z,99822.19
2023-04-15T18:04:44.125Z,99823.09
2023-04-15T18:07:12.123Z,99823.09
2023-04-15T18:09:41.564Z,99829.06
2023-04-15T18:12:09.437Z,99828.25
2023-04-15T18:14:37.737Z,99829.03
2023-04-15T18:17:05.934Z,99830.75
2023-04-15T18:19:33.711Z,99827.34
2023-04-15T18:22:01.467Z,99833.31
2023-04-15T18:24:29.483Z,99832.47
2023-04-15T18:26:59.014Z,99829.06
2023-04-15T18:29:26.840Z,99835.00
2023-04-15T18:31:54.663Z,99840.97
2023-04-15T18:34:22.533Z,99835.00
2023-04-15T18:36:50.418Z,99836.72
2023-04-15T18:39:18.367Z,99831.59
2023-04-15T18:41:46.152Z,99838.41
2023-04-15T18:44:15.442Z,99843.56
2023-04-15T18:46:43.308Z,99843.50
2023-04-15T18:49:11.209Z,99846.06
2023-04-15T18:51:39.274Z,99848.63
2023-04-15T18:54:07.083Z,99859.75
2023-04-15T18:56:34.850Z,99865.66
2023-04-15T18:59:25.337Z,99867.28
2023-04-15T19:01:52.245Z,99896.34
2023-04-15T19:04:20.395Z,99891.19
2023-04-15T19:06:48.560Z,99892.94
2023-04-15T19:09:16.897Z,99899.69
2023-04-15T19:11:44.676Z,99901.38
2023-04-15T19:14:12.478Z,99896.28
2023-04-15T19:16:40.322Z,99896.28
2023-04-15T19:19:09.514Z,99901.44
2023-04-15T19:21:37.509Z,99902.25
2023-04-15T19:24:05.465Z,99907.34
2023-04-15T19:26:33.376Z,99909.94
2023-04-15T19:29:01.207Z,99908.19
2023-04-15T19:31:28.993Z,99905.63
2023-04-15T19:33:56.753Z,99917.56
2023-04-15T19:36:26.610Z,99922.72
2023-04-15T19:38:54.459Z,99923.50
2023-04-15T19:41:22.211Z,99926.13
2023-04-15T19:43:49.958Z,99915.00
2023-04-15T19:46:17.816Z,99920.09
2023-04-15T19:48:45.740Z,99921.81
2023-04-15T19:51:13.517Z,99922.66
2023-04-15T19:53:42.750Z,99931.22
2023-04-15T19:56:10.956Z,99930.38
2023-04-15T19:58:38.809Z,99930.38
2023-04-15T20:01:06.630Z,99931.22
2023-04-15T20:03:34.573Z,99938.03
2023-04-15T20:06:02.466Z,99928.63
2023-04-15T20:08:30.229Z,99936.34
2023-04-15T20:11:01.076Z,99931.22
2023-04-15T20:13:28.892Z,99935.41
2023-04-15T20:15:56.623Z,99950.75
2023-04-15T20:18:24.431Z,99953.34
2023-04-15T20:20:52.283Z,99952.50
2023-04-15T20:23:20.033Z,99948.22
2023-04-15T20:25:47.818Z,99949.94
2023-04-15T20:28:18.056Z,99947.38
2023-04-15T20:30:45.878Z,99946.53
2023-04-15T20:33:13.774Z,99951.63
2023-04-15T20:35:41.767Z,99941.41
2023-04-15T20:38:10.514Z,99935.47
2023-04-15T20:40:39.477Z,99935.47
2023-04-15T20:43:08.344Z,99935.47
2023-04-15T20:45:37.611Z,99935.50
2023-04-15T20:48:06.348Z,99939.78
2023-04-15T20:50:34.147Z,99934.63
2023-04-15T20:53:01.972Z,99940.59
2023-04-15T20:55:30.782Z,99937.19
2023-04-15T20:57:59.000Z,99938.03
2023-04-15T21:00:26.824Z,99937.25
2023-04-15T21:02:56.255Z,99932.94
2023-04-15T21:05:24.173Z,99932.06
2023-04-15T21:07:51.976Z,99923.50
2023-04-15T21:10:19.948Z,99927.81
2023-04-15T21:12:47.707Z,99923.56
2023-04-15T21:15:15.490Z,99932.94
2023-04-15T21:17:43.328Z,99916.72
2023-04-15T21:20:13.534Z,99909.88
2023-04-15T21:22:41.341Z,99906.53
2023-04-15T21:25:10.151Z,99901.47
2023-04-15T21:27:37.950Z,99904.06
2023-04-15T21:30:06.690Z,99888.66
2023-04-15T21:32:34.508Z,99890.38
2023-04-15T21:35:02.291Z,99892.94
2023-04-15T21:37:31.713Z,99892.09
2023-04-15T21:39:59.516Z,99881.81
2023-04-15T21:42:27.330Z,99877.56
2023-04-15T21:44:55.068Z,99881.88
2023-04-15T21:47:22.847Z,99898.91
2023-04-15T21:49:51.846Z,99892.94
2023-04-15T21:52:19.661Z,99891.22
2023-04-15T21:54:48.825Z,99898.94
2023-04-15T21:57:16.682Z,99898.91
2023-04-15T21:59:44.450Z,99892.09
2023-04-15T22:06:36.062Z,99898.06
2023-04-15T22:09:03.853Z,99900.59
2023-04-15T22:11:32.274Z,99899.75
2023-04-15T22:14:00.648Z,99897.19
2023-04-15T22:16:28.658Z,99891.22
2023-04-15T22:18:56.631Z,99898.94
2023-04-15T22:21:24.498Z,99897.19
2023-04-15T22:24:38.699Z,99902.31
2023-04-15T22:26:42.347Z,99901.44
2023-04-15T22:29:10.623Z,99903.16
2023-04-15T22:31:38.420Z,99900.53
2023-04-15T22:34:06.226Z,99915.06
2023-04-15T22:36:34.124Z,99914.19
2023-04-15T22:39:03.471Z,99924.44
2023-04-15T22:41:31.575Z,99925.28
2023-04-15T22:43:59.323Z,99933.84
2023-04-15T22:46:27.156Z,99930.38
2023-04-15T22:48:55.103Z,99933.78
2023-04-15T22:51:23.513Z,99931.22
2023-04-15T22:53:51.421Z,99928.69
2023-04-15T22:56:21.484Z,99930.38
2023-04-15T22:58:49.885Z,99932.94
2023-04-15T23:01:17.967Z,99926.91
2023-04-15T23:03:56.983Z,99933.78
2023-04-15T23:06:31.832Z,99934.63
2023-04-15T23:08:59.643Z,99925.22
2023-04-15T23:11:28.797Z,99926.97
2023-04-15T23:13:56.582Z,99932.94
2023-04-15T23:16:24.429Z,99929.53
2023-04-15T23:18:52.240Z,99929.53
2023-04-15T23:21:19.992Z,99932.09
2023-04-15T23:23:47.780Z,99929.53
2023-04-15T23:26:15.587Z,99929.53
2023-04-15T23:28:44.715Z,99933.78
2023-04-15T23:31:12.543Z,99935.50
2023-04-15T23:33:40.464Z,99930.38
2023-04-15T23:36:08.591Z,99929.53
2023-04-15T23:38:36.384Z,99916.72
2023-04-15T23:41:04.187Z,99928.69
2023-04-15T23:43:31.973Z,99926.13
2023-04-15T23:46:01.093Z,99918.47
2023-04-15T23:48:30.103Z,99927.84
2023-04-15T23:50:57.990Z,99924.44
2023-04-15T23:53:25.776Z,99917.66
2023-04-15T23:55:53.558Z,99914.22
2023-04-15T23:58:21.299Z,99910.81
